createdAt,value
2022-11-27T00:02:22.562Z,27.50
2022-11-27T00:04:49.693Z,30.60
2022-11-27T00:07:16.830Z,32.42
2022-11-27T00:09:44.012Z,24.20
2022-11-27T00:12:11.150Z,34.70
2022-11-27T00:14:38.184Z,29.17
2022-11-27T00:17:05.280Z,35.33
2022-11-27T00:19:32.650Z,33.30
2022-11-27T00:21:59.797Z,33.63
2022-11-27T00:24:26.948Z,33.00
2022-11-27T00:26:54.078Z,37.60
2022-11-27T00:29:21.166Z,37.90
2022-11-27T00:31:48.286Z,37.17
2022-11-27T00:34:15.428Z,31.88
2022-11-27T00:36:46.565Z,36.83
2022-11-27T00:39:15.042Z,35.58
2022-11-27T00:41:42.104Z,34.03
2022-11-27T00:44:09.158Z,37.17
2022-11-27T00:46:36.295Z,34.03
2022-11-27T00:49:04.013Z,37.65
2022-11-27T00:51:31.122Z,35.65
2022-11-27T00:53:58.276Z,36.45
2022-11-27T00:56:29.547Z,36.53
2022-11-27T00:58:56.626Z,38.08
2022-11-27T01:01:33.583Z,35.85
2022-11-27T01:04:01.312Z,32.42
2022-11-27T01:06:28.688Z,36.38
2022-11-27T01:08:55.713Z,29.63
2022-11-27T01:11:25.652Z,34.20
2022-11-27T01:13:52.821Z,39.92
2022-11-27T01:16:20.721Z,34.55
2022-11-27T01:18:48.181Z,27.92
2022-11-27T01:21:15.818Z,29.63
2022-11-27T01:23:43.086Z,32.95
2022-11-27T01:26:10.871Z,35.05
2022-11-27T01:28:39.693Z,36.45
2022-11-27T01:31:07.459Z,31.23
2022-11-27T01:33:34.785Z,31.13
2022-11-27T01:36:02.413Z,28.95
2022-11-27T01:38:29.928Z,33.45
2022-11-27T01:41:00.410Z,32.25
2022-11-27T01:43:40.860Z,31.27
2022-11-27T01:46:17.335Z,31.52
2022-11-27T01:48:44.607Z,25.90
2022-11-27T01:51:11.667Z,19.15
2022-11-27T01:53:38.783Z,24.60
2022-11-27T01:56:05.968Z,24.60
2022-11-27T01:58:33.294Z,22.48
2022-11-27T02:01:00.367Z,25.65
2022-11-27T02:03:27.534Z,25.00
2022-11-27T02:05:54.682Z,21.67
2022-11-27T02:08:21.717Z,19.70
2022-11-27T02:11:00.764Z,21.10
2022-11-27T02:13:31.923Z,20.25
2022-11-27T02:16:18.136Z,17.27
2022-11-27T02:18:51.112Z,21.13
2022-11-27T02:21:27.548Z,14.60
2022-11-27T02:23:57.176Z,18.48
2022-11-27T02:26:24.230Z,17.30
2022-11-27T02:28:57.063Z,18.42
2022-11-27T02:31:26.737Z,15.40
2022-11-27T02:33:54.484Z,22.10
2022-11-27T02:36:25.193Z,13.25
2022-11-27T02:38:56.914Z,15.63
2022-11-27T02:41:31.041Z,17.52
2022-11-27T02:43:58.165Z,22.23
2022-11-27T02:46:25.204Z,21.92
2022-11-27T02:48:53.112Z,24.60
2022-11-27T02:51:24.117Z,23.75
2022-11-27T02:53:52.243Z,21.10
2022-11-27T02:56:21.422Z,23.73
2022-11-27T02:58:48.489Z,19.42
2022-11-27T03:01:16.109Z,28.80
2022-11-27T03:03:44.456Z,25.35
2022-11-27T03:06:12.072Z,29.05
2022-11-27T03:08:39.763Z,29.05
2022-11-27T03:11:07.993Z,29.20
2022-11-27T03:13:38.056Z,25.38
2022-11-27T03:16:11.321Z,27.17
2022-11-27T03:18:57.651Z,25.17
2022-11-27T03:21:28.890Z,35.28
2022-11-27T03:23:55.970Z,30.25
2022-11-27T03:26:23.019Z,24.63
2022-11-27T03:28:50.093Z,25.00
2022-11-27T03:31:17.189Z,26.42
2022-11-27T03:33:44.302Z,25.08
2022-11-27T03:36:13.047Z,20.98
2022-11-27T03:38:40.110Z,24.60
2022-11-27T03:41:10.132Z,26.58
2022-11-27T03:43:39.377Z,31.30
2022-11-27T03:46:17.087Z,28.23
2022-11-27T03:48:44.654Z,28.15
2022-11-27T03:51:20.327Z,28.27
2022-11-27T03:53:59.506Z,31.50
2022-11-27T03:56:32.586Z,32.63
2022-11-27T03:59:00.313Z,38.83
2022-11-27T04:01:27.404Z,32.40
2022-11-27T04:03:54.587Z,34.08
2022-11-27T04:06:21.714Z,35.72
2022-11-27T04:08:48.777Z,44.80
2022-11-27T04:11:15.929Z,34.53
2022-11-27T04:13:42.973Z,34.95
2022-11-27T04:16:10.077Z,32.13
2022-11-27T04:18:37.206Z,35.53
2022-11-27T04:21:04.518Z,35.88
2022-11-27T04:23:31.596Z,47.50
2022-11-27T04:25:58.671Z,37.22
2022-11-27T04:28:25.735Z,38.28
2022-11-27T04:30:53.378Z,35.80
2022-11-27T04:33:20.536Z,39.33
2022-11-27T04:35:47.594Z,36.63
2022-11-27T04:38:14.656Z,37.65
2022-11-27T04:40:41.771Z,37.50
2022-11-27T04:43:08.800Z,33.60
2022-11-27T04:45:36.810Z,35.65
2022-11-27T04:48:04.120Z,37.80
2022-11-27T04:50:31.211Z,34.47
2022-11-27T04:52:58.389Z,31.92
2022-11-27T04:55:25.447Z,35.72
2022-11-27T04:57:52.459Z,31.63
2022-11-27T05:00:19.864Z,37.50
2022-11-27T05:02:47.012Z,33.80
2022-11-27T05:05:14.154Z,41.83
2022-11-27T05:07:41.336Z,29.10
2022-11-27T05:10:08.862Z,29.13
2022-11-27T05:12:36.006Z,31.52
2022-11-27T05:15:04.588Z,31.55
2022-11-27T05:17:34.759Z,32.88
2022-11-27T05:20:01.789Z,40.40
2022-11-27T05:22:28.869Z,37.60
2022-11-27T05:24:55.918Z,36.13
2022-11-27T05:27:22.983Z,35.13
2022-11-27T05:29:50.094Z,39.03
2022-11-27T05:32:17.252Z,34.75
2022-11-27T05:34:44.297Z,34.72
2022-11-27T05:37:16.456Z,36.55
2022-11-27T05:39:46.411Z,38.20
2022-11-27T05:42:13.527Z,38.70
2022-11-27T05:44:40.870Z,35.90
2022-11-27T05:47:08.144Z,34.58
2022-11-27T05:49:35.316Z,34.03
2022-11-27T05:52:02.354Z,38.00
2022-11-27T05:54:29.369Z,37.35
2022-11-27T05:56:56.398Z,35.63
2022-11-27T05:59:23.409Z,34.67
2022-11-27T06:01:50.618Z,34.20
2022-11-27T06:04:17.765Z,32.35
2022-11-27T06:06:44.876Z,37.05
2022-11-27T06:09:13.494Z,39.45
2022-11-27T06:11:40.800Z,43.75
2022-11-27T06:14:08.858Z,45.53
2022-11-27T06:16:36.020Z,34.25
2022-11-27T06:19:03.101Z,38.08
2022-11-27T06:21:30.176Z,40.92
2022-11-27T06:23:57.402Z,41.40
2022-11-27T06:26:27.985Z,38.63
2022-11-27T06:31:23.008Z,39.85
2022-11-27T06:33:50.421Z,43.05
2022-11-27T06:36:17.698Z,41.13
2022-11-27T06:38:44.986Z,47.42
2022-11-27T06:41:12.893Z,40.17
2022-11-27T06:43:39.993Z,42.95
2022-11-27T06:46:07.504Z,43.35
2022-11-27T06:48:34.965Z,44.17
2022-11-27T06:51:02.517Z,42.85
2022-11-27T06:53:30.101Z,41.90
2022-11-27T06:55:57.466Z,45.85
2022-11-27T06:58:30.656Z,45.45
2022-11-27T07:01:01.465Z,41.80
2022-11-27T07:03:28.653Z,42.65
2022-11-27T07:05:55.704Z,36.63
2022-11-27T07:08:22.778Z,46.42
2022-11-27T07:10:49.896Z,51.20
2022-11-27T07:13:17.077Z,45.75
2022-11-27T07:15:44.228Z,42.10
2022-11-27T07:18:11.429Z,47.13
2022-11-27T07:20:38.526Z,47.17
2022-11-27T07:23:05.592Z,47.80
2022-11-27T07:25:32.704Z,42.83
2022-11-27T07:27:59.832Z,47.65
2022-11-27T07:30:26.897Z,50.22
2022-11-27T07:32:53.948Z,46.25
2022-11-27T07:35:20.966Z,54.95
2022-11-27T07:37:48.070Z,53.40
2022-11-27T07:40:15.286Z,46.85
2022-11-27T07:42:42.346Z,48.53
2022-11-27T07:45:09.599Z,47.90
2022-11-27T07:47:36.837Z,47.42
2022-11-27T07:50:04.176Z,46.80
2022-11-27T07:52:31.253Z,44.05
2022-11-27T07:54:58.298Z,43.35
2022-11-27T07:57:25.406Z,40.80
2022-11-27T07:59:52.477Z,39.75
2022-11-27T08:02:19.580Z,37.30
2022-11-27T08:04:46.669Z,38.38
2022-11-27T08:07:14.075Z,36.75
2022-11-27T08:09:59.080Z,36.47
2022-11-27T08:12:26.117Z,30.75
2022-11-27T08:14:53.161Z,30.15
2022-11-27T08:17:20.225Z,28.48
2022-11-27T08:19:47.282Z,25.92
2022-11-27T08:22:14.630Z,27.60
2022-11-27T08:24:42.592Z,24.98
2022-11-27T08:27:10.325Z,23.00
2022-11-27T08:29:37.669Z,22.25
2022-11-27T08:32:05.218Z,22.70
2022-11-27T08:34:32.390Z,19.67
2022-11-27T08:36:59.472Z,20.27
2022-11-27T08:39:27.331Z,18.17
2022-11-27T08:41:54.651Z,17.52
2022-11-27T08:44:21.729Z,16.63
2022-11-27T08:46:48.756Z,19.88
2022-11-27T08:49:15.868Z,12.45
2022-11-27T08:51:42.991Z,15.32
2022-11-27T08:54:10.060Z,20.10
2022-11-27T08:56:37.094Z,16.10
2022-11-27T08:59:04.164Z,21.38
2022-11-27T09:01:31.971Z,16.27
2022-11-27T09:03:59.392Z,13.98
2022-11-27T09:06:31.113Z,12.65
2022-11-27T09:09:01.590Z,14.50
2022-11-27T09:11:29.342Z,16.60
2022-11-27T09:13:56.388Z,22.00
2022-11-27T09:16:23.564Z,15.13
2022-11-27T09:18:51.362Z,13.40
2022-11-27T09:21:18.838Z,15.60
2022-11-27T09:23:45.932Z,14.15
2022-11-27T09:26:14.050Z,13.00
2022-11-27T09:28:41.152Z,15.10
2022-11-27T09:31:08.846Z,16.95
2022-11-27T09:33:36.307Z,15.60
2022-11-27T09:36:07.043Z,14.50
2022-11-27T09:38:34.150Z,20.10
2022-11-27T09:41:03.466Z,14.60
2022-11-27T09:43:31.461Z,17.05
2022-11-27T09:46:01.346Z,14.65
2022-11-27T09:48:41.880Z,11.77
2022-11-27T09:51:18.890Z,20.48
2022-11-27T09:53:50.740Z,16.98
2022-11-27T09:56:18.075Z,12.73
2022-11-27T09:58:53.844Z,16.02
2022-11-27T10:01:38.500Z,12.10
2022-11-27T10:04:13.137Z,12.57
2022-11-27T10:06:40.275Z,14.27
2022-11-27T10:09:22.687Z,16.55
2022-11-27T10:11:54.874Z,13.43
2022-11-27T10:14:37.475Z,12.95
2022-11-27T10:17:13.655Z,13.77
2022-11-27T10:19:51.475Z,10.45
2022-11-27T10:22:26.982Z,10.73
2022-11-27T10:24:57.154Z,12.52
2022-11-27T10:27:44.465Z,10.60
2022-11-27T10:30:16.377Z,12.63
2022-11-27T10:32:59.011Z,10.65
2022-11-27T10:35:27.153Z,9.95
2022-11-27T10:37:54.265Z,9.75
2022-11-27T10:40:23.442Z,14.55
2022-11-27T10:43:08.926Z,11.27
2022-11-27T10:45:39.171Z,10.25
2022-11-27T10:48:07.350Z,9.38
2022-11-27T10:50:34.546Z,10.98
2022-11-27T10:53:02.860Z,8.55
2022-11-27T10:55:51.682Z,13.02
2022-11-27T10:58:28.695Z,10.00
2022-11-27T11:01:06.909Z,13.45
2022-11-27T11:03:34.156Z,13.30
2022-11-27T11:06:21.433Z,12.80
2022-11-27T11:08:49.626Z,9.93
2022-11-27T11:11:25.208Z,10.57
2022-11-27T11:13:52.297Z,9.23
2022-11-27T11:16:24.360Z,12.63
2022-11-27T11:18:52.858Z,8.60
2022-11-27T11:21:23.871Z,11.65
2022-11-27T11:23:58.267Z,8.07
2022-11-27T11:26:26.571Z,11.73
2022-11-27T11:28:54.246Z,9.95
2022-11-27T11:31:28.908Z,8.85
2022-11-27T11:33:57.077Z,8.95
2022-11-27T11:36:24.129Z,7.53
2022-11-27T11:38:51.757Z,7.90
2022-11-27T11:41:18.877Z,9.57
2022-11-27T11:43:59.258Z,9.38
2022-11-27T11:46:28.645Z,8.63
2022-11-27T11:48:58.826Z,8.73
2022-11-27T11:51:41.737Z,10.00
2022-11-27T11:54:18.363Z,11.50
2022-11-27T11:56:46.132Z,9.10
2022-11-27T11:59:19.396Z,11.40
2022-11-27T12:01:54.127Z,8.73
2022-11-27T12:04:21.447Z,6.85
2022-11-27T12:06:54.365Z,9.00
2022-11-27T12:09:28.167Z,10.23
2022-11-27T12:11:58.662Z,9.45
2022-11-27T12:17:07.248Z,8.60
2022-11-27T12:19:34.865Z,8.15
2022-11-27T12:22:01.971Z,10.13
2022-11-27T12:24:55.298Z,11.82
2022-11-27T12:27:25.087Z,4.47
2022-11-27T12:29:52.166Z,8.20
2022-11-27T12:32:19.237Z,7.57
2022-11-27T12:34:57.621Z,6.57
2022-11-27T12:37:24.682Z,9.73
2022-11-27T12:39:57.525Z,8.00
2022-11-27T12:42:27.377Z,5.70
2022-11-27T12:45:13.191Z,7.18
2022-11-27T12:47:43.769Z,7.15
2022-11-27T12:52:41.878Z,8.73
2022-11-27T12:55:16.294Z,8.73
2022-11-27T12:57:50.515Z,7.22
2022-11-27T13:00:18.984Z,8.48
2022-11-27T13:02:49.128Z,7.15
2022-11-27T13:05:16.199Z,7.03
2022-11-27T13:07:52.384Z,10.70
2022-11-27T13:10:21.689Z,6.50
2022-11-27T13:13:01.207Z,8.20
2022-11-27T13:15:32.202Z,8.55
2022-11-27T13:18:07.319Z,9.32
2022-11-27T13:20:35.393Z,6.57
2022-11-27T13:23:02.506Z,4.53
2022-11-27T13:25:29.603Z,6.78
2022-11-27T13:27:56.751Z,6.15
2022-11-27T13:30:27.155Z,7.95
2022-11-27T13:32:54.941Z,6.40
2022-11-27T13:35:21.962Z,7.50
2022-11-27T13:37:49.565Z,7.13
2022-11-27T13:40:23.196Z,6.57
2022-11-27T13:42:53.237Z,6.35
2022-11-27T13:45:24.041Z,4.57
2022-11-27T13:47:51.114Z,8.82
2022-11-27T13:50:19.002Z,4.72
2022-11-27T13:52:52.136Z,8.05
2022-11-27T13:55:26.327Z,5.65
2022-11-27T13:57:53.837Z,4.10
2022-11-27T14:00:30.799Z,6.57
2022-11-27T14:02:57.869Z,5.50
2022-11-27T14:05:34.747Z,7.88
2022-11-27T14:08:01.869Z,6.40
2022-11-27T14:10:30.134Z,6.78
2022-11-27T14:13:03.999Z,8.00
2022-11-27T14:15:31.703Z,6.50
2022-11-27T14:18:10.896Z,8.40
2022-11-27T14:20:48.321Z,9.85
2022-11-27T14:23:15.428Z,11.10
2022-11-27T14:25:42.538Z,6.28
2022-11-27T14:28:16.746Z,7.80
2022-11-27T14:30:50.778Z,8.07
2022-11-27T14:33:21.915Z,7.00
2022-11-27T14:35:52.422Z,8.82
2022-11-27T14:38:19.602Z,7.32
2022-11-27T14:40:46.995Z,9.18
2022-11-27T14:43:17.994Z,8.35
2022-11-27T14:45:45.909Z,6.85
2022-11-27T14:48:16.157Z,9.15
2022-11-27T14:50:43.237Z,12.93
2022-11-27T14:53:10.252Z,13.73
2022-11-27T14:55:37.303Z,10.48
2022-11-27T14:58:04.366Z,11.80
2022-11-27T15:00:32.355Z,11.80
2022-11-27T15:03:09.458Z,8.00
2022-11-27T15:05:37.448Z,10.15
2022-11-27T15:08:04.790Z,7.93
2022-11-27T15:10:33.293Z,6.60
2022-11-27T15:13:00.959Z,8.52
2022-11-27T15:15:28.923Z,9.88
2022-11-27T15:17:57.136Z,7.70
2022-11-27T15:20:39.617Z,8.75
2022-11-27T15:23:13.754Z,8.38
2022-11-27T15:25:41.759Z,9.90
2022-11-27T15:28:24.177Z,7.47
2022-11-27T15:30:51.365Z,7.45
2022-11-27T15:33:28.145Z,11.75
2022-11-27T15:35:56.164Z,9.63
2022-11-27T15:38:23.237Z,10.95
2022-11-27T15:41:00.842Z,9.00
2022-11-27T15:43:27.968Z,10.98
2022-11-27T15:45:55.083Z,11.00
2022-11-27T15:48:22.687Z,11.68
2022-11-27T15:50:51.874Z,10.00
2022-11-27T15:53:19.164Z,10.75
2022-11-27T15:55:46.236Z,10.35
2022-11-27T15:58:13.270Z,8.50
2022-11-27T16:00:40.656Z,10.07
2022-11-27T16:03:07.894Z,8.60
2022-11-27T16:05:35.012Z,9.80
2022-11-27T16:08:04.172Z,9.55
2022-11-27T16:10:31.314Z,10.07
2022-11-27T16:13:01.605Z,11.80
2022-11-27T16:15:32.746Z,8.95
2022-11-27T16:18:00.245Z,12.38
2022-11-27T16:20:29.970Z,8.38
2022-11-27T16:22:57.136Z,7.60
2022-11-27T16:25:25.357Z,9.20
2022-11-27T16:27:55.646Z,11.63
2022-11-27T16:30:25.160Z,12.57
2022-11-27T16:32:52.170Z,10.82
2022-11-27T16:35:19.230Z,8.48
2022-11-27T16:37:46.269Z,8.82
2022-11-27T16:40:13.762Z,10.80
2022-11-27T16:42:40.798Z,10.30
2022-11-27T16:45:08.192Z,12.00
2022-11-27T16:47:35.259Z,8.65
2022-11-27T16:50:02.562Z,8.88
2022-11-27T16:52:29.693Z,12.57
2022-11-27T16:54:56.924Z,12.60
2022-11-27T16:57:23.992Z,10.82
2022-11-27T16:59:51.024Z,9.27
2022-11-27T17:02:18.160Z,14.30
2022-11-27T17:04:45.397Z,15.30
2022-11-27T17:07:12.501Z,14.60
2022-11-27T17:09:42.130Z,15.18
2022-11-27T17:12:09.244Z,13.40
2022-11-27T17:14:36.951Z,13.38
2022-11-27T17:17:05.687Z,13.30
2022-11-27T17:19:34.116Z,14.45
2022-11-27T17:22:01.432Z,12.18
2022-11-27T17:24:28.907Z,13.38
2022-11-27T17:26:56.070Z,14.18
2022-11-27T17:29:23.168Z,13.15
2022-11-27T17:31:50.593Z,14.13
2022-11-27T17:34:17.740Z,14.15
2022-11-27T17:36:45.255Z,15.77
2022-11-27T17:39:13.050Z,13.88
2022-11-27T17:41:40.569Z,15.93
2022-11-27T17:44:08.032Z,15.35
2022-11-27T17:46:36.234Z,16.25
2022-11-27T17:49:03.691Z,25.17
2022-11-27T17:51:31.407Z,33.10
2022-11-27T17:54:00.666Z,15.85
2022-11-27T17:56:28.177Z,16.10
2022-11-27T17:58:55.273Z,12.93
2022-11-27T18:01:23.246Z,16.95
2022-11-27T18:03:50.370Z,16.48
2022-11-27T18:06:17.890Z,15.93
2022-11-27T18:08:45.290Z,15.93
2022-11-27T18:11:16.397Z,18.27
2022-11-27T18:13:43.569Z,20.40
2022-11-27T18:16:11.799Z,15.23
2022-11-27T18:18:38.941Z,19.05
2022-11-27T18:21:08.643Z,19.67
2022-11-27T18:23:36.230Z,17.15
2022-11-27T18:26:06.718Z,15.52
2022-11-27T18:28:33.749Z,16.98
2022-11-27T18:31:13.288Z,15.77
2022-11-27T18:33:40.394Z,15.38
2022-11-27T18:36:07.877Z,18.50
2022-11-27T18:38:35.552Z,16.23
2022-11-27T18:41:12.818Z,18.23
2022-11-27T18:43:40.513Z,18.25
2022-11-27T18:46:07.928Z,17.27
2022-11-27T18:48:35.087Z,17.15
2022-11-27T18:51:05.167Z,14.25
2022-11-27T18:53:32.472Z,13.90
2022-11-27T18:56:06.649Z,18.70
2022-11-27T18:58:36.765Z,17.25
2022-11-27T19:01:05.104Z,14.90
2022-11-27T19:03:32.263Z,16.50
2022-11-27T19:06:03.000Z,17.15
2022-11-27T19:08:30.117Z,15.75
2022-11-27T19:11:00.824Z,13.90
2022-11-27T19:13:27.887Z,17.00
2022-11-27T19:15:54.965Z,14.82
2022-11-27T19:18:22.030Z,19.08
2022-11-27T19:20:49.116Z,15.77
2022-11-27T19:23:16.261Z,14.55
2022-11-27T19:25:43.346Z,15.98
2022-11-27T19:28:11.077Z,18.08
2022-11-27T19:30:41.886Z,19.88
2022-11-27T19:33:09.001Z,16.67
2022-11-27T19:35:36.082Z,17.38
2022-11-27T19:38:03.214Z,13.57
2022-11-27T19:40:30.948Z,17.58
2022-11-27T19:43:00.957Z,14.75
2022-11-27T19:45:28.614Z,15.63
2022-11-27T19:47:55.763Z,14.32
2022-11-27T19:50:22.910Z,17.58
2022-11-27T19:52:49.957Z,19.38
2022-11-27T19:55:17.011Z,18.48
2022-11-27T19:57:44.079Z,17.13
2022-11-27T20:00:12.365Z,20.70
2022-11-27T20:02:40.128Z,17.90
2022-11-27T20:05:07.492Z,20.77
2022-11-27T20:07:34.765Z,19.70
2022-11-27T20:10:02.008Z,16.38
2022-11-27T20:12:30.882Z,20.38
2022-11-27T20:14:59.611Z,21.90
2022-11-27T20:17:26.713Z,19.52
2022-11-27T20:19:53.788Z,17.25
2022-11-27T20:22:20.919Z,17.35
2022-11-27T20:25:17.374Z,18.08
2022-11-27T20:27:35.043Z,15.70
2022-11-27T20:30:02.146Z,18.05
2022-11-27T20:32:29.250Z,16.17
2022-11-27T20:34:56.314Z,17.35
2022-11-27T20:37:23.342Z,15.93
2022-11-27T20:39:50.442Z,15.73
2022-11-27T20:42:17.583Z,17.17
2022-11-27T20:44:44.684Z,16.25
2022-11-27T20:47:11.745Z,17.95
2022-11-27T20:49:38.874Z,18.15
2022-11-27T20:52:06.181Z,19.20
2022-11-27T20:54:33.242Z,15.38
2022-11-27T20:57:00.794Z,16.25
2022-11-27T20:59:27.869Z,20.05
2022-11-27T21:01:55.006Z,15.57
2022-11-27T21:04:23.171Z,17.65
2022-11-27T21:06:50.266Z,17.75
2022-11-27T21:09:17.323Z,15.93
2022-11-27T21:11:44.604Z,17.13
2022-11-27T21:14:12.761Z,14.65
2022-11-27T21:16:41.948Z,16.92
2022-11-27T21:19:12.839Z,12.88
2022-11-27T21:21:39.922Z,16.80
2022-11-27T21:24:07.142Z,17.00
2022-11-27T21:26:34.947Z,15.82
2022-11-27T21:29:02.090Z,18.40
2022-11-27T21:31:35.877Z,14.80
2022-11-27T21:34:04.684Z,14.23
2022-11-27T21:36:32.712Z,14.18
2022-11-27T21:39:00.184Z,15.13
2022-11-27T21:41:27.517Z,19.10
2022-11-27T21:43:55.409Z,17.15
2022-11-27T21:46:22.793Z,15.50
2022-11-27T21:48:50.564Z,16.17
2022-11-27T21:51:18.916Z,16.00
2022-11-27T21:53:46.170Z,17.23
2022-11-27T21:56:14.384Z,15.73
2022-11-27T21:58:41.414Z,14.63
2022-11-27T22:01:09.822Z,16.65
2022-11-27T22:03:42.156Z,15.63
2022-11-27T22:06:14.547Z,15.80
2022-11-27T22:08:42.197Z,18.00
2022-11-27T22:11:09.708Z,15.50
2022-11-27T22:13:36.862Z,17.70
2022-11-27T22:16:08.765Z,13.98
2022-11-27T22:18:35.881Z,16.23
2022-11-27T22:21:06.317Z,17.95
2022-11-27T22:23:33.486Z,20.65
2022-11-27T22:26:01.688Z,17.25
2022-11-27T22:28:29.150Z,20.63
2022-11-27T22:30:56.337Z,24.40
2022-11-27T22:33:23.627Z,20.83
2022-11-27T22:35:50.705Z,19.63
2022-11-27T22:38:17.786Z,22.85
2022-11-27T22:40:44.822Z,23.08
2022-11-27T22:43:11.926Z,17.92
2022-11-27T22:45:39.704Z,21.92
2022-11-27T22:48:07.092Z,19.17
2022-11-27T22:50:34.112Z,21.00
2022-11-27T22:53:01.146Z,20.48
2022-11-27T22:55:28.218Z,19.40
2022-11-27T22:57:55.292Z,20.20
2022-11-27T23:00:22.392Z,18.20
2022-11-27T23:02:49.512Z,18.52
2022-11-27T23:05:16.604Z,21.63
2022-11-27T23:07:43.739Z,20.60
2022-11-27T23:10:11.163Z,19.45
2022-11-27T23:12:38.219Z,19.92
2022-11-27T23:15:05.527Z,20.80
2022-11-27T23:17:32.563Z,18.55
2022-11-27T23:19:59.585Z,19.55
2022-11-27T23:22:27.059Z,18.83
2022-11-27T23:24:54.639Z,22.35
2022-11-27T23:27:21.707Z,20.15
2022-11-27T23:29:48.982Z,19.48
2022-11-27T23:32:16.152Z,23.42
2022-11-27T23:34:43.420Z,19.00
2022-11-27T23:37:10.783Z,22.98
2022-11-27T23:39:37.873Z,21.30
2022-11-27T23:42:05.328Z,23.35
2022-11-27T23:44:32.459Z,20.52
2022-11-27T23:46:59.530Z,18.55
2022-11-27T23:49:26.619Z,20.08
2022-11-27T23:51:53.669Z,20.38
2022-11-27T23:54:20.771Z,18.90
2022-11-27T23:56:51.102Z,19.33
2022-11-27T23:59:18.171Z,17.45
